sensor_id;sensor_type;location;lat;lon;timestamp;P1;durP1;ratioP1;P2;durP2;ratioP2
62401;SDS011;48440;51.224;22.506;2023-11-19T00:00:05;19.00;;;12.20;;
62401;SDS011;48440;51.224;22.506;2023-11-19T00:02:31;19.20;;;11.75;;
62401;SDS011;48440;51.224;22.506;2023-11-19T00:04:57;20.13;;;11.38;;
62401;SDS011;48440;51.224;22.506;2023-11-19T00:07:23;19.42;;;11.07;;
62401;SDS011;48440;51.224;22.506;2023-11-19T00:09:48;17.65;;;10.88;;
62401;SDS011;48440;51.224;22.506;2023-11-19T00:12:14;19.95;;;11.93;;
62401;SDS011;48440;51.224;22.506;2023-11-19T00:14:40;19.10;;;11.20;;
62401;SDS011;48440;51.224;22.506;2023-11-19T00:17:06;20.38;;;11.40;;
62401;SDS011;48440;51.224;22.506;2023-11-19T00:19:31;19.55;;;11.63;;
62401;SDS011;48440;51.224;22.506;2023-11-19T00:21:56;19.02;;;11.65;;
62401;SDS011;48440;51.224;22.506;2023-11-19T00:24:22;17.42;;;11.15;;
62401;SDS011;48440;51.224;22.506;2023-11-19T00:26:47;17.73;;;10.85;;
62401;SDS011;48440;51.224;22.506;2023-11-19T00:29:14;18.58;;;11.70;;
62401;SDS011;48440;51.224;22.506;2023-11-19T00:31:40;19.92;;;11.02;;
62401;SDS011;48440;51.224;22.506;2023-11-19T00:34:05;19.70;;;10.90;;
62401;SDS011;48440;51.224;22.506;2023-11-19T00:36:31;18.45;;;10.73;;
62401;SDS011;48440;51.224;22.506;2023-11-19T00:38:57;20.35;;;12.02;;
62401;SDS011;48440;51.224;22.506;2023-11-19T00:41:23;20.00;;;11.50;;
62401;SDS011;48440;51.224;22.506;2023-11-19T00:43:48;20.80;;;11.45;;
62401;SDS011;48440;51.224;22.506;2023-11-19T00:46:14;19.02;;;11.57;;
62401;SDS011;48440;51.224;22.506;2023-11-19T00:48:39;19.20;;;11.35;;
62401;SDS011;48440;51.224;22.506;2023-11-19T00:51:05;19.33;;;11.55;;
62401;SDS011;48440;51.224;22.506;2023-11-19T00:53:31;20.55;;;11.35;;
62401;SDS011;48440;51.224;22.506;2023-11-19T00:55:57;19.80;;;11.45;;
62401;SDS011;48440;51.224;22.506;2023-11-19T00:58:23;22.77;;;12.20;;
62401;SDS011;48440;51.224;22.506;2023-11-19T01:00:48;19.85;;;11.82;;
62401;SDS011;48440;51.224;22.506;2023-11-19T01:03:14;20.00;;;11.10;;
62401;SDS011;48440;51.224;22.506;2023-11-19T01:05:41;20.95;;;12.25;;
62401;SDS011;48440;51.224;22.506;2023-11-19T01:08:06;22.70;;;11.70;;
62401;SDS011;48440;51.224;22.506;2023-11-19T01:10:33;18.80;;;11.13;;
62401;SDS011;48440;51.224;22.506;2023-11-19T01:12:59;18.65;;;10.65;;
62401;SDS011;48440;51.224;22.506;2023-11-19T01:15:24;16.88;;;10.70;;
62401;SDS011;48440;51.224;22.506;2023-11-19T01:17:50;20.90;;;10.38;;
62401;SDS011;48440;51.224;22.506;2023-11-19T01:20:15;17.98;;;10.40;;
62401;SDS011;48440;51.224;22.506;2023-11-19T01:22:41;19.05;;;10.68;;
62401;SDS011;48440;51.224;22.506;2023-11-19T01:25:06;19.95;;;10.13;;
62401;SDS011;48440;51.224;22.506;2023-11-19T01:27:32;18.35;;;10.30;;
62401;SDS011;48440;51.224;22.506;2023-11-19T01:30:02;17.48;;;10.65;;
62401;SDS011;48440;51.224;22.506;2023-11-19T01:32:31;19.88;;;10.82;;
62401;SDS011;48440;51.224;22.506;2023-11-19T01:34:57;19.17;;;10.13;;
62401;SDS011;48440;51.224;22.506;2023-11-19T01:37:23;19.90;;;12.07;;
62401;SDS011;48440;51.224;22.506;2023-11-19T01:39:48;18.40;;;11.15;;
62401;SDS011;48440;51.224;22.506;2023-11-19T01:42:13;20.73;;;11.63;;
62401;SDS011;48440;51.224;22.506;2023-11-19T01:44:40;19.42;;;10.60;;
62401;SDS011;48440;51.224;22.506;2023-11-19T01:47:06;19.35;;;10.32;;
62401;SDS011;48440;51.224;22.506;2023-11-19T01:49:32;18.98;;;10.52;;
62401;SDS011;48440;51.224;22.506;2023-11-19T01:51:58;17.63;;;10.02;;
62401;SDS011;48440;51.224;22.506;2023-11-19T01:54:24;17.42;;;9.57;;
62401;SDS011;48440;51.224;22.506;2023-11-19T01:56:50;17.48;;;9.68;;
62401;SDS011;48440;51.224;22.506;2023-11-19T01:59:21;17.75;;;10.20;;
62401;SDS011;48440;51.224;22.506;2023-11-19T02:01:51;20.58;;;11.10;;
62401;SDS011;48440;51.224;22.506;2023-11-19T02:04:18;17.17;;;9.88;;
62401;SDS011;48440;51.224;22.506;2023-11-19T02:06:45;18.88;;;10.73;;
62401;SDS011;48440;51.224;22.506;2023-11-19T02:09:17;17.20;;;9.73;;
62401;SDS011;48440;51.224;22.506;2023-11-19T02:11:45;17.60;;;9.95;;
62401;SDS011;48440;51.224;22.506;2023-11-19T02:14:14;14.57;;;8.50;;
62401;SDS011;48440;51.224;22.506;2023-11-19T02:16:40;16.98;;;9.15;;
62401;SDS011;48440;51.224;22.506;2023-11-19T02:19:06;18.63;;;9.23;;
62401;SDS011;48440;51.224;22.506;2023-11-19T02:21:31;15.48;;;9.63;;
62401;SDS011;48440;51.224;22.506;2023-11-19T02:23:58;15.75;;;8.85;;
62401;SDS011;48440;51.224;22.506;2023-11-19T02:26:28;17.45;;;8.77;;
62401;SDS011;48440;51.224;22.506;2023-11-19T02:29:04;17.88;;;9.63;;
62401;SDS011;48440;51.224;22.506;2023-11-19T02:31:31;16.63;;;8.45;;
62401;SDS011;48440;51.224;22.506;2023-11-19T02:33:57;15.68;;;8.75;;
62401;SDS011;48440;51.224;22.506;2023-11-19T02:36:22;17.25;;;8.38;;
62401;SDS011;48440;51.224;22.506;2023-11-19T02:38:48;15.23;;;7.93;;
62401;SDS011;48440;51.224;22.506;2023-11-19T02:41:13;14.15;;;7.53;;
62401;SDS011;48440;51.224;22.506;2023-11-19T02:43:39;12.48;;;7.80;;
62401;SDS011;48440;51.224;22.506;2023-11-19T02:46:05;13.63;;;7.53;;
62401;SDS011;48440;51.224;22.506;2023-11-19T02:48:36;11.85;;;7.07;;
62401;SDS011;48440;51.224;22.506;2023-11-19T02:51:02;12.18;;;7.80;;
62401;SDS011;48440;51.224;22.506;2023-11-19T02:53:34;12.48;;;7.63;;
62401;SDS011;48440;51.224;22.506;2023-11-19T02:56:00;15.48;;;8.57;;
62401;SDS011;48440;51.224;22.506;2023-11-19T02:58:31;12.57;;;7.38;;
62401;SDS011;48440;51.224;22.506;2023-11-19T03:00:57;13.07;;;7.28;;
62401;SDS011;48440;51.224;22.506;2023-11-19T03:03:26;13.02;;;7.40;;
62401;SDS011;48440;51.224;22.506;2023-11-19T03:06:06;12.35;;;7.72;;
62401;SDS011;48440;51.224;22.506;2023-11-19T03:08:36;13.13;;;7.93;;
62401;SDS011;48440;51.224;22.506;2023-11-19T03:11:01;15.20;;;8.30;;
62401;SDS011;48440;51.224;22.506;2023-11-19T03:13:27;11.13;;;7.25;;
62401;SDS011;48440;51.224;22.506;2023-11-19T03:15:52;16.15;;;7.90;;
62401;SDS011;48440;51.224;22.506;2023-11-19T03:18:19;11.48;;;7.30;;
62401;SDS011;48440;51.224;22.506;2023-11-19T03:20:46;10.93;;;7.60;;
62401;SDS011;48440;51.224;22.506;2023-11-19T03:23:12;11.63;;;7.45;;
62401;SDS011;48440;51.224;22.506;2023-11-19T03:25:37;13.88;;;7.45;;
62401;SDS011;48440;51.224;22.506;2023-11-19T03:28:03;12.98;;;7.93;;
62401;SDS011;48440;51.224;22.506;2023-11-19T03:30:29;10.65;;;7.63;;
62401;SDS011;48440;51.224;22.506;2023-11-19T03:32:56;11.15;;;7.13;;
62401;SDS011;48440;51.224;22.506;2023-11-19T03:35:22;11.65;;;7.90;;
62401;SDS011;48440;51.224;22.506;2023-11-19T03:37:49;13.18;;;8.50;;
62401;SDS011;48440;51.224;22.506;2023-11-19T03:40:14;13.50;;;8.23;;
62401;SDS011;48440;51.224;22.506;2023-11-19T03:42:40;16.38;;;9.20;;
62401;SDS011;48440;51.224;22.506;2023-11-19T03:45:06;12.15;;;8.40;;
62401;SDS011;48440;51.224;22.506;2023-11-19T03:47:34;16.15;;;9.23;;
62401;SDS011;48440;51.224;22.506;2023-11-19T03:49:59;18.08;;;10.27;;
62401;SDS011;48440;51.224;22.506;2023-11-19T03:52:25;17.48;;;10.32;;
62401;SDS011;48440;51.224;22.506;2023-11-19T03:54:52;20.63;;;10.70;;
62401;SDS011;48440;51.224;22.506;2023-11-19T03:57:18;20.10;;;10.55;;
62401;SDS011;48440;51.224;22.506;2023-11-19T03:59:43;19.00;;;10.90;;
62401;SDS011;48440;51.224;22.506;2023-11-19T04:02:09;19.17;;;11.43;;
62401;SDS011;48440;51.224;22.506;2023-11-19T04:04:35;19.60;;;11.30;;
62401;SDS011;48440;51.224;22.506;2023-11-19T04:07:01;17.30;;;10.90;;
62401;SDS011;48440;51.224;22.506;2023-11-19T04:09:28;16.02;;;10.23;;
62401;SDS011;48440;51.224;22.506;2023-11-19T04:11:54;16.23;;;10.07;;
62401;SDS011;48440;51.224;22.506;2023-11-19T04:14:20;19.05;;;10.15;;
62401;SDS011;48440;51.224;22.506;2023-11-19T04:16:45;15.70;;;10.43;;
62401;SDS011;48440;51.224;22.506;2023-11-19T04:19:11;18.30;;;9.98;;
62401;SDS011;48440;51.224;22.506;2023-11-19T04:21:37;17.38;;;9.73;;
62401;SDS011;48440;51.224;22.506;2023-11-19T04:24:04;16.67;;;10.65;;
62401;SDS011;48440;51.224;22.506;2023-11-19T04:26:30;15.32;;;10.00;;
62401;SDS011;48440;51.224;22.506;2023-11-19T04:28:56;19.13;;;10.70;;
62401;SDS011;48440;51.224;22.506;2023-11-19T04:31:21;15.63;;;8.98;;
62401;SDS011;48440;51.224;22.506;2023-11-19T04:33:47;15.70;;;9.82;;
62401;SDS011;48440;51.224;22.506;2023-11-19T04:36:12;16.13;;;9.88;;
62401;SDS011;48440;51.224;22.506;2023-11-19T04:38:39;15.30;;;10.20;;
62401;SDS011;48440;51.224;22.506;2023-11-19T04:41:05;14.85;;;9.48;;
62401;SDS011;48440;51.224;22.506;2023-11-19T04:43:33;16.05;;;9.98;;
62401;SDS011;48440;51.224;22.506;2023-11-19T04:45:59;17.40;;;10.15;;
62401;SDS011;48440;51.224;22.506;2023-11-19T04:48:24;15.60;;;9.90;;
62401;SDS011;48440;51.224;22.506;2023-11-19T04:50:50;17.23;;;10.23;;
62401;SDS011;48440;51.224;22.506;2023-11-19T04:53:18;15.98;;;9.82;;
62401;SDS011;48440;51.224;22.506;2023-11-19T04:55:43;16.70;;;10.30;;
62401;SDS011;48440;51.224;22.506;2023-11-19T04:58:08;16.25;;;9.68;;
62401;SDS011;48440;51.224;22.506;2023-11-19T05:00:34;16.00;;;9.55;;
62401;SDS011;48440;51.224;22.506;2023-11-19T05:03:01;18.27;;;10.93;;
62401;SDS011;48440;51.224;22.506;2023-11-19T05:05:29;15.25;;;9.77;;
62401;SDS011;48440;51.224;22.506;2023-11-19T05:07:55;15.80;;;10.10;;
62401;SDS011;48440;51.224;22.506;2023-11-19T05:10:20;15.48;;;9.75;;
62401;SDS011;48440;51.224;22.506;2023-11-19T05:12:46;15.45;;;9.93;;
62401;SDS011;48440;51.224;22.506;2023-11-19T05:15:11;14.63;;;10.10;;
62401;SDS011;48440;51.224;22.506;2023-11-19T05:17:37;14.98;;;9.57;;
62401;SDS011;48440;51.224;22.506;2023-11-19T05:20:04;17.13;;;10.55;;
62401;SDS011;48440;51.224;22.506;2023-11-19T05:22:38;16.70;;;9.27;;
62401;SDS011;48440;51.224;22.506;2023-11-19T05:25:04;16.75;;;10.20;;
62401;SDS011;48440;51.224;22.506;2023-11-19T05:27:30;17.05;;;10.10;;
62401;SDS011;48440;51.224;22.506;2023-11-19T05:29:56;16.70;;;10.70;;
62401;SDS011;48440;51.224;22.506;2023-11-19T05:32:21;15.75;;;9.77;;
62401;SDS011;48440;51.224;22.506;2023-11-19T05:34:47;16.67;;;9.93;;
62401;SDS011;48440;51.224;22.506;2023-11-19T05:37:12;15.65;;;9.45;;
62401;SDS011;48440;51.224;22.506;2023-11-19T05:39:37;15.65;;;10.27;;
62401;SDS011;48440;51.224;22.506;2023-11-19T05:42:03;16.52;;;9.43;;
62401;SDS011;48440;51.224;22.506;2023-11-19T05:44:31;15.68;;;9.13;;
62401;SDS011;48440;51.224;22.506;2023-11-19T05:46:56;16.80;;;9.95;;
62401;SDS011;48440;51.224;22.506;2023-11-19T05:49:22;15.90;;;9.57;;
62401;SDS011;48440;51.224;22.506;2023-11-19T05:51:47;13.98;;;8.90;;
62401;SDS011;48440;51.224;22.506;2023-11-19T05:54:12;15.30;;;9.10;;
62401;SDS011;48440;51.224;22.506;2023-11-19T05:56:38;15.88;;;9.85;;
62401;SDS011;48440;51.224;22.506;2023-11-19T05:59:04;14.95;;;8.68;;
62401;SDS011;48440;51.224;22.506;2023-11-19T06:01:35;14.13;;;8.90;;
62401;SDS011;48440;51.224;22.506;2023-11-19T06:04:01;16.38;;;9.52;;
62401;SDS011;48440;51.224;22.506;2023-11-19T06:06:27;15.48;;;9.43;;
62401;SDS011;48440;51.224;22.506;2023-11-19T06:08:53;13.23;;;8.60;;
62401;SDS011;48440;51.224;22.506;2023-11-19T06:11:20;12.90;;;8.60;;
62401;SDS011;48440;51.224;22.506;2023-11-19T06:13:45;12.75;;;8.07;;
62401;SDS011;48440;51.224;22.506;2023-11-19T06:16:12;12.25;;;8.02;;
62401;SDS011;48440;51.224;22.506;2023-11-19T06:18:38;15.10;;;9.43;;
62401;SDS011;48440;51.224;22.506;2023-11-19T06:21:03;12.60;;;8.57;;
62401;SDS011;48440;51.224;22.506;2023-11-19T06:23:29;13.95;;;8.52;;
62401;SDS011;48440;51.224;22.506;2023-11-19T06:25:54;13.02;;;8.75;;
62401;SDS011;48440;51.224;22.506;2023-11-19T06:28:20;13.90;;;8.68;;
62401;SDS011;48440;51.224;22.506;2023-11-19T06:30:45;12.88;;;7.65;;
62401;SDS011;48440;51.224;22.506;2023-11-19T06:33:14;13.85;;;8.82;;
62401;SDS011;48440;51.224;22.506;2023-11-19T06:35:39;14.15;;;8.25;;
62401;SDS011;48440;51.224;22.506;2023-11-19T06:38:05;13.10;;;7.68;;
62401;SDS011;48440;51.224;22.506;2023-11-19T06:40:31;12.52;;;8.55;;
62401;SDS011;48440;51.224;22.506;2023-11-19T06:42:57;14.43;;;8.63;;
62401;SDS011;48440;51.224;22.506;2023-11-19T06:45:22;12.98;;;8.23;;
62401;SDS011;48440;51.224;22.506;2023-11-19T06:47:48;12.75;;;8.00;;
62401;SDS011;48440;51.224;22.506;2023-11-19T06:50:13;13.45;;;9.00;;
62401;SDS011;48440;51.224;22.506;2023-11-19T06:52:40;15.20;;;9.40;;
62401;SDS011;48440;51.224;22.506;2023-11-19T06:55:05;12.98;;;8.52;;
62401;SDS011;48440;51.224;22.506;2023-11-19T06:57:31;13.48;;;8.20;;
62401;SDS011;48440;51.224;22.506;2023-11-19T06:59:57;14.38;;;7.78;;
62401;SDS011;48440;51.224;22.506;2023-11-19T07:02:23;12.63;;;8.43;;
62401;SDS011;48440;51.224;22.506;2023-11-19T07:04:49;14.77;;;8.85;;
62401;SDS011;48440;51.224;22.506;2023-11-19T07:07:14;15.10;;;9.05;;
62401;SDS011;48440;51.224;22.506;2023-11-19T07:09:40;13.25;;;7.88;;
62401;SDS011;48440;51.224;22.506;2023-11-19T07:12:06;13.52;;;7.95;;
62401;SDS011;48440;51.224;22.506;2023-11-19T07:14:31;13.32;;;8.15;;
62401;SDS011;48440;51.224;22.506;2023-11-19T07:16:57;12.02;;;8.40;;
62401;SDS011;48440;51.224;22.506;2023-11-19T07:19:22;13.50;;;8.93;;
62401;SDS011;48440;51.224;22.506;2023-11-19T07:21:48;13.43;;;8.38;;
62401;SDS011;48440;51.224;22.506;2023-11-19T07:24:14;15.20;;;9.18;;
62401;SDS011;48440;51.224;22.506;2023-11-19T07:26:43;13.38;;;8.25;;
62401;SDS011;48440;51.224;22.506;2023-11-19T07:29:09;13.80;;;8.25;;
62401;SDS011;48440;51.224;22.506;2023-11-19T07:31:35;13.43;;;8.48;;
62401;SDS011;48440;51.224;22.506;2023-11-19T07:34:00;12.32;;;7.82;;
62401;SDS011;48440;51.224;22.506;2023-11-19T07:36:26;13.02;;;8.70;;
62401;SDS011;48440;51.224;22.506;2023-11-19T07:38:51;14.15;;;9.07;;
62401;SDS011;48440;51.224;22.506;2023-11-19T07:41:18;14.18;;;8.20;;
62401;SDS011;48440;51.224;22.506;2023-11-19T07:43:45;14.20;;;8.95;;
62401;SDS011;48440;51.224;22.506;2023-11-19T07:46:12;13.88;;;9.23;;
62401;SDS011;48440;51.224;22.506;2023-11-19T07:48:38;13.63;;;8.65;;
62401;SDS011;48440;51.224;22.506;2023-11-19T07:51:04;13.70;;;8.13;;
62401;SDS011;48440;51.224;22.506;2023-11-19T07:53:30;12.45;;;7.63;;
62401;SDS011;48440;51.224;22.506;2023-11-19T07:55:55;13.55;;;8.52;;
62401;SDS011;48440;51.224;22.506;2023-11-19T07:58:21;13.57;;;8.23;;
62401;SDS011;48440;51.224;22.506;2023-11-19T08:00:46;13.00;;;7.72;;
62401;SDS011;48440;51.224;22.506;2023-11-19T08:03:12;12.07;;;7.63;;
62401;SDS011;48440;51.224;22.506;2023-11-19T08:05:37;14.18;;;7.72;;
62401;SDS011;48440;51.224;22.506;2023-11-19T08:08:03;12.32;;;7.85;;
62401;SDS011;48440;51.224;22.506;2023-11-19T08:10:28;12.93;;;8.20;;
62401;SDS011;48440;51.224;22.506;2023-11-19T08:12:54;12.15;;;7.78;;
62401;SDS011;48440;51.224;22.506;2023-11-19T08:15:19;13.38;;;8.70;;
62401;SDS011;48440;51.224;22.506;2023-11-19T08:17:45;13.07;;;8.00;;
62401;SDS011;48440;51.224;22.506;2023-11-19T08:20:10;11.52;;;7.85;;
62401;SDS011;48440;51.224;22.506;2023-11-19T08:22:36;12.43;;;8.02;;
62401;SDS011;48440;51.224;22.506;2023-11-19T08:25:04;12.57;;;7.65;;
62401;SDS011;48440;51.224;22.506;2023-11-19T08:27:30;13.57;;;7.60;;
62401;SDS011;48440;51.224;22.506;2023-11-19T08:29:55;13.18;;;7.80;;
62401;SDS011;48440;51.224;22.506;2023-11-19T08:32:27;13.32;;;8.10;;
62401;SDS011;48440;51.224;22.506;2023-11-19T08:34:52;12.13;;;7.57;;
62401;SDS011;48440;51.224;22.506;2023-11-19T08:37:19;10.80;;;7.45;;
62401;SDS011;48440;51.224;22.506;2023-11-19T08:39:47;12.45;;;7.85;;
62401;SDS011;48440;51.224;22.506;2023-11-19T08:42:13;10.60;;;6.82;;
62401;SDS011;48440;51.224;22.506;2023-11-19T08:44:39;11.00;;;7.40;;
62401;SDS011;48440;51.224;22.506;2023-11-19T08:47:08;13.02;;;7.88;;
62401;SDS011;48440;51.224;22.506;2023-11-19T08:49:34;11.10;;;8.15;;
62401;SDS011;48440;51.224;22.506;2023-11-19T08:52:00;10.57;;;7.10;;
62401;SDS011;48440;51.224;22.506;2023-11-19T08:54:25;10.55;;;7.43;;
62401;SDS011;48440;51.224;22.506;2023-11-19T08:56:51;12.52;;;7.88;;
62401;SDS011;48440;51.224;22.506;2023-11-19T08:59:16;12.10;;;8.02;;
62401;SDS011;48440;51.224;22.506;2023-11-19T09:01:42;10.63;;;7.57;;
62401;SDS011;48440;51.224;22.506;2023-11-19T09:04:08;10.95;;;6.78;;
62401;SDS011;48440;51.224;22.506;2023-11-19T09:06:34;9.77;;;6.75;;
62401;SDS011;48440;51.224;22.506;2023-11-19T09:09:01;11.98;;;7.65;;
62401;SDS011;48440;51.224;22.506;2023-11-19T09:11:28;11.95;;;7.07;;
62401;SDS011;48440;51.224;22.506;2023-11-19T09:13:54;10.88;;;7.25;;
62401;SDS011;48440;51.224;22.506;2023-11-19T09:16:19;11.43;;;7.53;;
62401;SDS011;48440;51.224;22.506;2023-11-19T09:18:45;13.57;;;7.57;;
62401;SDS011;48440;51.224;22.506;2023-11-19T09:21:10;10.68;;;7.20;;
62401;SDS011;48440;51.224;22.506;2023-11-19T09:23:36;12.50;;;7.80;;
62401;SDS011;48440;51.224;22.506;2023-11-19T09:26:06;12.20;;;8.13;;
62401;SDS011;48440;51.224;22.506;2023-11-19T09:28:33;10.70;;;7.13;;
62401;SDS011;48440;51.224;22.506;2023-11-19T09:30:59;10.93;;;6.97;;
62401;SDS011;48440;51.224;22.506;2023-11-19T09:33:24;11.18;;;7.45;;
62401;SDS011;48440;51.224;22.506;2023-11-19T09:35:51;10.02;;;7.10;;
62401;SDS011;48440;51.224;22.506;2023-11-19T09:38:16;10.60;;;8.20;;
62401;SDS011;48440;51.224;22.506;2023-11-19T09:40:42;10.82;;;6.57;;
62401;SDS011;48440;51.224;22.506;2023-11-19T09:43:08;9.25;;;7.10;;
62401;SDS011;48440;51.224;22.506;2023-11-19T09:46:09;10.18;;;7.00;;
62401;SDS011;48440;51.224;22.506;2023-11-19T09:48:32;10.10;;;6.88;;
62401;SDS011;48440;51.224;22.506;2023-11-19T09:51:02;11.00;;;7.05;;
62401;SDS011;48440;51.224;22.506;2023-11-19T09:53:29;10.68;;;6.57;;
62401;SDS011;48440;51.224;22.506;2023-11-19T09:55:55;10.88;;;7.55;;
62401;SDS011;48440;51.224;22.506;2023-11-19T09:58:21;9.63;;;6.70;;
62401;SDS011;48440;51.224;22.506;2023-11-19T10:00:47;9.20;;;6.70;;
62401;SDS011;48440;51.224;22.506;2023-11-19T10:03:13;10.75;;;6.60;;
62401;SDS011;48440;51.224;22.506;2023-11-19T10:05:39;8.45;;;6.20;;
62401;SDS011;48440;51.224;22.506;2023-11-19T10:08:05;8.55;;;6.60;;
62401;SDS011;48440;51.224;22.506;2023-11-19T10:10:31;8.25;;;5.85;;
62401;SDS011;48440;51.224;22.506;2023-11-19T10:12:56;8.77;;;5.80;;
62401;SDS011;48440;51.224;22.506;2023-11-19T10:15:22;7.80;;;5.63;;
62401;SDS011;48440;51.224;22.506;2023-11-19T10:17:49;10.32;;;6.22;;
62401;SDS011;48440;51.224;22.506;2023-11-19T10:20:22;7.75;;;5.45;;
62401;SDS011;48440;51.224;22.506;2023-11-19T10:22:47;9.98;;;6.35;;
62401;SDS011;48440;51.224;22.506;2023-11-19T10:25:22;8.25;;;6.35;;
62401;SDS011;48440;51.224;22.506;2023-11-19T10:27:48;9.23;;;6.68;;
62401;SDS011;48440;51.224;22.506;2023-11-19T10:30:21;8.88;;;6.15;;
62401;SDS011;48440;51.224;22.506;2023-11-19T10:33:07;8.32;;;6.25;;
62401;SDS011;48440;51.224;22.506;2023-11-19T10:35:34;8.20;;;6.07;;
62401;SDS011;48440;51.224;22.506;2023-11-19T10:38:13;8.88;;;5.93;;
62401;SDS011;48440;51.224;22.506;2023-11-19T10:40:40;8.35;;;6.00;;
62401;SDS011;48440;51.224;22.506;2023-11-19T10:43:06;8.82;;;5.95;;
62401;SDS011;48440;51.224;22.506;2023-11-19T10:45:35;9.90;;;6.28;;
62401;SDS011;48440;51.224;22.506;2023-11-19T10:48:02;9.80;;;6.30;;
62401;SDS011;48440;51.224;22.506;2023-11-19T10:50:35;9.52;;;6.18;;
62401;SDS011;48440;51.224;22.506;2023-11-19T10:53:01;8.15;;;6.30;;
62401;SDS011;48440;51.224;22.506;2023-11-19T10:55:32;9.02;;;6.05;;
62401;SDS011;48440;51.224;22.506;2023-11-19T10:58:03;9.30;;;6.40;;
62401;SDS011;48440;51.224;22.506;2023-11-19T11:00:33;8.65;;;6.47;;
62401;SDS011;48440;51.224;22.506;2023-11-19T11:03:02;8.23;;;6.40;;
62401;SDS011;48440;51.224;22.506;2023-11-19T11:05:35;9.50;;;6.43;;
62401;SDS011;48440;51.224;22.506;2023-11-19T11:08:03;10.07;;;6.80;;
62401;SDS011;48440;51.224;22.506;2023-11-19T11:10:31;8.35;;;6.38;;
62401;SDS011;48440;51.224;22.506;2023-11-19T11:13:02;9.48;;;6.43;;
62401;SDS011;48440;51.224;22.506;2023-11-19T11:15:29;9.77;;;6.13;;
62401;SDS011;48440;51.224;22.506;2023-11-19T11:17:57;8.05;;;6.10;;
62401;SDS011;48440;51.224;22.506;2023-11-19T11:20:31;8.60;;;5.90;;
62401;SDS011;48440;51.224;22.506;2023-11-19T11:25:42;9.35;;;6.78;;
62401;SDS011;48440;51.224;22.506;2023-11-19T11:36:27;8.95;;;5.97;;
62401;SDS011;48440;51.224;22.506;2023-11-19T11:38:58;8.63;;;6.25;;
62401;SDS011;48440;51.224;22.506;2023-11-19T11:41:28;8.93;;;6.57;;
62401;SDS011;48440;51.224;22.506;2023-11-19T11:43:55;7.75;;;5.78;;
62401;SDS011;48440;51.224;22.506;2023-11-19T11:49:09;8.90;;;6.65;;
62401;SDS011;48440;51.224;22.506;2023-11-19T11:57:08;9.45;;;6.50;;
62401;SDS011;48440;51.224;22.506;2023-11-19T12:06:10;10.20;;;6.70;;
62401;SDS011;48440;51.224;22.506;2023-11-19T12:08:45;9.35;;;6.40;;
62401;SDS011;48440;51.224;22.506;2023-11-19T12:11:23;8.30;;;5.75;;
62401;SDS011;48440;51.224;22.506;2023-11-19T12:14:01;7.78;;;5.43;;
62401;SDS011;48440;51.224;22.506;2023-11-19T12:16:35;9.82;;;6.75;;
62401;SDS011;48440;51.224;22.506;2023-11-19T12:22:10;9.57;;;7.18;;
62401;SDS011;48440;51.224;22.506;2023-11-19T12:24:36;9.63;;;6.78;;
62401;SDS011;48440;51.224;22.506;2023-11-19T12:27:16;9.02;;;6.97;;
62401;SDS011;48440;51.224;22.506;2023-11-19T12:29:48;10.32;;;7.10;;
62401;SDS011;48440;51.224;22.506;2023-11-19T12:32:16;9.43;;;6.70;;
62401;SDS011;48440;51.224;22.506;2023-11-19T12:34:41;11.35;;;7.55;;
62401;SDS011;48440;51.224;22.506;2023-11-19T12:37:15;11.55;;;8.20;;
62401;SDS011;48440;51.224;22.506;2023-11-19T12:40:27;12.25;;;8.30;;
62401;SDS011;48440;51.224;22.506;2023-11-19T12:43:05;12.13;;;8.05;;
62401;SDS011;48440;51.224;22.506;2023-11-19T12:45:36;10.48;;;7.65;;
62401;SDS011;48440;51.224;22.506;2023-11-19T12:48:08;12.23;;;8.02;;
62401;SDS011;48440;51.224;22.506;2023-11-19T12:50:52;14.27;;;7.93;;
62401;SDS011;48440;51.224;22.506;2023-11-19T12:53:25;12.20;;;8.23;;
62401;SDS011;48440;51.224;22.506;2023-11-19T12:55:52;11.02;;;8.07;;
62401;SDS011;48440;51.224;22.506;2023-11-19T12:58:35;12.00;;;8.30;;
62401;SDS011;48440;51.224;22.506;2023-11-19T13:01:05;11.02;;;8.65;;
62401;SDS011;48440;51.224;22.506;2023-11-19T13:03:38;13.40;;;7.93;;
62401;SDS011;48440;51.224;22.506;2023-11-19T13:06:10;13.05;;;8.10;;
62401;SDS011;48440;51.224;22.506;2023-11-19T13:11:03;12.55;;;7.95;;
62401;SDS011;48440;51.224;22.506;2023-11-19T13:13:28;12.38;;;7.82;;
62401;SDS011;48440;51.224;22.506;2023-11-19T13:16:01;12.02;;;8.55;;
62401;SDS011;48440;51.224;22.506;2023-11-19T13:18:33;12.55;;;8.00;;
62401;SDS011;48440;51.224;22.506;2023-11-19T13:21:00;13.25;;;8.40;;
62401;SDS011;48440;51.224;22.506;2023-11-19T13:23:25;12.32;;;7.95;;
62401;SDS011;48440;51.224;22.506;2023-11-19T13:26:00;12.68;;;7.78;;
62401;SDS011;48440;51.224;22.506;2023-11-19T13:28:25;12.00;;;7.88;;
62401;SDS011;48440;51.224;22.506;2023-11-19T13:30:52;13.63;;;8.05;;
62401;SDS011;48440;51.224;22.506;2023-11-19T13:33:18;15.82;;;9.13;;
62401;SDS011;48440;51.224;22.506;2023-11-19T13:36:04;12.65;;;8.05;;
62401;SDS011;48440;51.224;22.506;2023-11-19T13:38:40;12.75;;;8.13;;
62401;SDS011;48440;51.224;22.506;2023-11-19T13:41:09;13.80;;;8.07;;
62401;SDS011;48440;51.224;22.506;2023-11-19T13:43:35;12.68;;;8.05;;
62401;SDS011;48440;51.224;22.506;2023-11-19T13:46:01;13.23;;;8.20;;
62401;SDS011;48440;51.224;22.506;2023-11-19T13:48:27;14.02;;;7.18;;
62401;SDS011;48440;51.224;22.506;2023-11-19T13:50:54;12.27;;;7.63;;
62401;SDS011;48440;51.224;22.506;2023-11-19T13:53:22;14.02;;;8.45;;
62401;SDS011;48440;51.224;22.506;2023-11-19T13:55:50;12.73;;;8.02;;
62401;SDS011;48440;51.224;22.506;2023-11-19T13:58:16;11.05;;;7.63;;
62401;SDS011;48440;51.224;22.506;2023-11-19T14:00:41;11.15;;;8.30;;
62401;SDS011;48440;51.224;22.506;2023-11-19T14:03:08;12.15;;;7.53;;
62401;SDS011;48440;51.224;22.506;2023-11-19T14:05:36;13.27;;;8.13;;
62401;SDS011;48440;51.224;22.506;2023-11-19T14:08:01;11.18;;;7.68;;
62401;SDS011;48440;51.224;22.506;2023-11-19T14:10:28;10.85;;;7.63;;
62401;SDS011;48440;51.224;22.506;2023-11-19T14:12:53;15.07;;;8.20;;
62401;SDS011;48440;51.224;22.506;2023-11-19T14:15:19;10.93;;;8.23;;
62401;SDS011;48440;51.224;22.506;2023-11-19T14:17:44;12.35;;;7.88;;
62401;SDS011;48440;51.224;22.506;2023-11-19T14:20:10;13.82;;;8.70;;
62401;SDS011;48440;51.224;22.506;2023-11-19T14:22:40;11.90;;;7.65;;
62401;SDS011;48440;51.224;22.506;2023-11-19T14:25:06;10.40;;;7.25;;
62401;SDS011;48440;51.224;22.506;2023-11-19T14:27:39;12.85;;;8.18;;
62401;SDS011;48440;51.224;22.506;2023-11-19T14:30:05;12.00;;;8.07;;
62401;SDS011;48440;51.224;22.506;2023-11-19T14:32:41;12.82;;;8.25;;
62401;SDS011;48440;51.224;22.506;2023-11-19T14:35:10;11.30;;;7.60;;
62401;SDS011;48440;51.224;22.506;2023-11-19T14:37:36;11.82;;;7.25;;
62401;SDS011;48440;51.224;22.506;2023-11-19T14:40:02;11.15;;;7.60;;
62401;SDS011;48440;51.224;22.506;2023-11-19T14:42:31;14.57;;;8.20;;
62401;SDS011;48440;51.224;22.506;2023-11-19T14:44:57;13.13;;;8.15;;
62401;SDS011;48440;51.224;22.506;2023-11-19T14:47:23;12.13;;;7.78;;
62401;SDS011;48440;51.224;22.506;2023-11-19T14:49:49;11.75;;;7.88;;
62401;SDS011;48440;51.224;22.506;2023-11-19T14:52:14;12.27;;;8.30;;